sensor_id;sensor_type;location;lat;lon;timestamp;temperature;humidity
8595;DHT22;4335;48.860;9.198;2023-05-10T00:00:27;15.10;99.90
8595;DHT22;4335;48.860;9.198;2023-05-10T00:02:57;15.10;99.90
8595;DHT22;4335;48.860;9.198;2023-05-10T00:05:25;15.10;99.90
8595;DHT22;4335;48.860;9.198;2023-05-10T00:07:52;15.00;99.90
8595;DHT22;4335;48.860;9.198;2023-05-10T00:10:23;14.90;99.90
8595;DHT22;4335;48.860;9.198;2023-05-10T00:12:51;14.80;99.90
8595;DHT22;4335;48.860;9.198;2023-05-10T00:15:19;14.80;99.90
8595;DHT22;4335;48.860;9.198;2023-05-10T00:17:46;14.80;99.90
8595;DHT22;4335;48.860;9.198;2023-05-10T00:20:14;14.80;99.90
8595;DHT22;4335;48.860;9.198;2023-05-10T00:22:41;14.80;99.90
8595;DHT22;4335;48.860;9.198;2023-05-10T00:25:09;14.70;99.90
8595;DHT22;4335;48.860;9.198;2023-05-10T00:27:39;14.70;99.90
8595;DHT22;4335;48.860;9.198;2023-05-10T00:30:12;14.70;99.90
8595;DHT22;4335;48.860;9.198;2023-05-10T00:32:39;14.60;99.90
8595;DHT22;4335;48.860;9.198;2023-05-10T00:35:09;14.60;99.90
8595;DHT22;4335;48.860;9.198;2023-05-10T00:37:37;14.60;99.90
8595;DHT22;4335;48.860;9.198;2023-05-10T00:40:06;14.60;99.90
8595;DHT22;4335;48.860;9.198;2023-05-10T00:42:42;14.50;99.90
8595;DHT22;4335;48.860;9.198;2023-05-10T00:45:14;14.50;99.90
8595;DHT22;4335;48.860;9.198;2023-05-10T00:47:48;14.50;99.90
8595;DHT22;4335;48.860;9.198;2023-05-10T00:50:15;14.40;99.90
8595;DHT22;4335;48.860;9.198;2023-05-10T00:52:43;14.40;99.90
8595;DHT22;4335;48.860;9.198;2023-05-10T00:55:13;14.40;99.90
8595;DHT22;4335;48.860;9.198;2023-05-10T00:57:47;14.40;99.90
8595;DHT22;4335;48.860;9.198;2023-05-10T01:00:17;14.40;99.90
8595;DHT22;4335;48.860;9.198;2023-05-10T01:02:47;14.40;99.90
8595;DHT22;4335;48.860;9.198;2023-05-10T01:05:23;14.30;99.90
8595;DHT22;4335;48.860;9.198;2023-05-10T01:07:50;14.30;99.90
8595;DHT22;4335;48.860;9.198;2023-05-10T01:10:21;14.30;99.90
8595;DHT22;4335;48.860;9.198;2023-05-10T01:12:48;14.20;99.90
8595;DHT22;4335;48.860;9.198;2023-05-10T01:15:18;14.20;99.90
8595;DHT22;4335;48.860;9.198;2023-05-10T01:17:49;14.20;99.90
8595;DHT22;4335;48.860;9.198;2023-05-10T01:20:16;14.10;99.90
8595;DHT22;4335;48.860;9.198;2023-05-10T01:23:16;14.10;99.90
8595;DHT22;4335;48.860;9.198;2023-05-10T01:29:31;14.10;99.90
8595;DHT22;4335;48.860;9.198;2023-05-10T01:32:19;14.10;99.90
8595;DHT22;4335;48.860;9.198;2023-05-10T01:34:57;14.10;99.90
8595;DHT22;4335;48.860;9.198;2023-05-10T01:37:35;14.10;99.90
8595;DHT22;4335;48.860;9.198;2023-05-10T01:40:10;14.10;99.90
8595;DHT22;4335;48.860;9.198;2023-05-10T01:42:51;14.10;99.90
8595;DHT22;4335;48.860;9.198;2023-05-10T01:45:24;14.20;99.90
8595;DHT22;4335;48.860;9.198;2023-05-10T01:48:06;14.20;99.90
8595;DHT22;4335;48.860;9.198;2023-05-10T01:50:35;14.10;99.90
8595;DHT22;4335;48.860;9.198;2023-05-10T01:53:10;14.10;99.90
8595;DHT22;4335;48.860;9.198;2023-05-10T01:55:43;14.10;99.90
8595;DHT22;4335;48.860;9.198;2023-05-10T01:58:20;14.10;99.90
8595;DHT22;4335;48.860;9.198;2023-05-10T02:00:49;14.00;99.90
8595;DHT22;4335;48.860;9.198;2023-05-10T02:03:24;14.00;99.90
8595;DHT22;4335;48.860;9.198;2023-05-10T02:05:54;14.00;99.90
8595;DHT22;4335;48.860;9.198;2023-05-10T02:08:22;14.00;99.90
8595;DHT22;4335;48.860;9.198;2023-05-10T02:10:53;14.00;99.90
8595;DHT22;4335;48.860;9.198;2023-05-10T02:13:22;14.00;99.90
8595;DHT22;4335;48.860;9.198;2023-05-10T02:15:51;13.90;99.90
8595;DHT22;4335;48.860;9.198;2023-05-10T02:18:30;13.90;99.90
8595;DHT22;4335;48.860;9.198;2023-05-10T02:20:59;13.90;99.90
8595;DHT22;4335;48.860;9.198;2023-05-10T02:23:30;13.80;99.90
8595;DHT22;4335;48.860;9.198;2023-05-10T02:25:59;13.80;99.90
8595;DHT22;4335;48.860;9.198;2023-05-10T02:28:28;13.80;99.90
8595;DHT22;4335;48.860;9.198;2023-05-10T02:30:56;13.80;99.90
8595;DHT22;4335;48.860;9.198;2023-05-10T02:33:24;13.80;99.90
8595;DHT22;4335;48.860;9.198;2023-05-10T02:35:55;13.80;99.90
8595;DHT22;4335;48.860;9.198;2023-05-10T02:38:23;13.80;99.90
8595;DHT22;4335;48.860;9.198;2023-05-10T02:40:51;13.80;99.90
8595;DHT22;4335;48.860;9.198;2023-05-10T02:43:26;13.80;99.90
8595;DHT22;4335;48.860;9.198;2023-05-10T02:46:02;13.80;99.90
8595;DHT22;4335;48.860;9.198;2023-05-10T02:48:30;13.70;99.90
8595;DHT22;4335;48.860;9.198;2023-05-10T02:51:05;13.70;99.90
8595;DHT22;4335;48.860;9.198;2023-05-10T02:53:35;13.80;99.90
8595;DHT22;4335;48.860;9.198;2023-05-10T02:56:12;13.70;99.90
8595;DHT22;4335;48.860;9.198;2023-05-10T02:58:40;13.70;99.90
8595;DHT22;4335;48.860;9.198;2023-05-10T03:01:10;13.80;99.90
8595;DHT22;4335;48.860;9.198;2023-05-10T03:03:37;13.80;99.90
8595;DHT22;4335;48.860;9.198;2023-05-10T03:06:12;13.80;99.90
8595;DHT22;4335;48.860;9.198;2023-05-10T03:08:43;13.80;99.90
8595;DHT22;4335;48.860;9.198;2023-05-10T03:11:32;13.80;99.90
8595;DHT22;4335;48.860;9.198;2023-05-10T03:14:10;13.80;99.90
8595;DHT22;4335;48.860;9.198;2023-05-10T03:16:44;13.80;99.90
8595;DHT22;4335;48.860;9.198;2023-05-10T03:19:16;13.80;99.90
8595;DHT22;4335;48.860;9.198;2023-05-10T03:21:50;13.80;99.90
8595;DHT22;4335;48.860;9.198;2023-05-10T03:24:20;13.80;99.90
8595;DHT22;4335;48.860;9.198;2023-05-10T03:26:49;13.80;99.90
8595;DHT22;4335;48.860;9.198;2023-05-10T03:29:20;13.80;99.90
8595;DHT22;4335;48.860;9.198;2023-05-10T03:31:48;13.80;99.90
8595;DHT22;4335;48.860;9.198;2023-05-10T03:34:15;13.80;99.90
8595;DHT22;4335;48.860;9.198;2023-05-10T03:36:43;13.80;99.90
8595;DHT22;4335;48.860;9.198;2023-05-10T03:39:15;13.80;99.90
8595;DHT22;4335;48.860;9.198;2023-05-10T03:41:42;13.80;99.90
8595;DHT22;4335;48.860;9.198;2023-05-10T03:44:09;13.80;99.90
8595;DHT22;4335;48.860;9.198;2023-05-10T03:46:40;13.70;99.90
8595;DHT22;4335;48.860;9.198;2023-05-10T03:49:10;13.80;99.90
8595;DHT22;4335;48.860;9.198;2023-05-10T03:51:38;13.80;99.90
8595;DHT22;4335;48.860;9.198;2023-05-10T03:54:05;13.80;99.90
8595;DHT22;4335;48.860;9.198;2023-05-10T03:56:34;13.80;99.90
8595;DHT22;4335;48.860;9.198;2023-05-10T03:59:12;13.80;99.90
8595;DHT22;4335;48.860;9.198;2023-05-10T04:01:39;13.80;99.90
8595;DHT22;4335;48.860;9.198;2023-05-10T04:04:10;13.80;99.90
8595;DHT22;4335;48.860;9.198;2023-05-10T04:06:38;13.80;99.90
8595;DHT22;4335;48.860;9.198;2023-05-10T04:09:12;13.80;99.90
8595;DHT22;4335;48.860;9.198;2023-05-10T04:11:43;13.80;99.90
8595;DHT22;4335;48.860;9.198;2023-05-10T04:14:11;13.90;99.90
8595;DHT22;4335;48.860;9.198;2023-05-10T04:16:38;13.90;99.90
8595;DHT22;4335;48.860;9.198;2023-05-10T04:21:51;13.90;99.90
8595;DHT22;4335;48.860;9.198;2023-05-10T04:24:25;13.90;99.90
8595;DHT22;4335;48.860;9.198;2023-05-10T04:26:54;13.90;99.90
8595;DHT22;4335;48.860;9.198;2023-05-10T04:29:23;13.90;99.90
8595;DHT22;4335;48.860;9.198;2023-05-10T04:31:51;14.00;99.90
8595;DHT22;4335;48.860;9.198;2023-05-10T04:34:22;14.00;99.90
8595;DHT22;4335;48.860;9.198;2023-05-10T04:36:49;14.10;99.90
8595;DHT22;4335;48.860;9.198;2023-05-10T04:39:19;14.10;99.90
8595;DHT22;4335;48.860;9.198;2023-05-10T04:41:49;14.10;99.90
8595;DHT22;4335;48.860;9.198;2023-05-10T04:44:18;14.10;99.90
8595;DHT22;4335;48.860;9.198;2023-05-10T04:46:51;14.20;99.90
8595;DHT22;4335;48.860;9.198;2023-05-10T04:49:25;14.20;99.90
8595;DHT22;4335;48.860;9.198;2023-05-10T04:51:52;14.20;99.90
8595;DHT22;4335;48.860;9.198;2023-05-10T04:54:19;14.30;99.90
8595;DHT22;4335;48.860;9.198;2023-05-10T04:56:47;14.30;99.90
8595;DHT22;4335;48.860;9.198;2023-05-10T04:59:14;14.40;99.90
8595;DHT22;4335;48.860;9.198;2023-05-10T05:01:49;14.40;99.90
8595;DHT22;4335;48.860;9.198;2023-05-10T05:04:16;14.40;99.90
8595;DHT22;4335;48.860;9.198;2023-05-10T05:06:49;14.50;99.90
8595;DHT22;4335;48.860;9.198;2023-05-10T05:09:17;14.60;99.90
8595;DHT22;4335;48.860;9.198;2023-05-10T05:11:47;14.60;99.90
8595;DHT22;4335;48.860;9.198;2023-05-10T05:14:16;14.70;99.90
8595;DHT22;4335;48.860;9.198;2023-05-10T05:16:59;14.70;99.90
8595;DHT22;4335;48.860;9.198;2023-05-10T05:19:27;14.80;99.90
8595;DHT22;4335;48.860;9.198;2023-05-10T05:21:59;15.00;99.90
8595;DHT22;4335;48.860;9.198;2023-05-10T05:24:39;15.10;99.90
8595;DHT22;4335;48.860;9.198;2023-05-10T05:27:09;15.20;99.90
8595;DHT22;4335;48.860;9.198;2023-05-10T05:29:37;15.30;99.90
8595;DHT22;4335;48.860;9.198;2023-05-10T05:32:05;15.50;99.90
8595;DHT22;4335;48.860;9.198;2023-05-10T05:34:44;15.60;99.90
8595;DHT22;4335;48.860;9.198;2023-05-10T05:37:13;15.70;99.90
8595;DHT22;4335;48.860;9.198;2023-05-10T05:39:44;15.60;99.90
8595;DHT22;4335;48.860;9.198;2023-05-10T05:42:12;15.70;99.90
8595;DHT22;4335;48.860;9.198;2023-05-10T05:44:48;15.80;99.90
8595;DHT22;4335;48.860;9.198;2023-05-10T05:47:20;15.90;99.90
8595;DHT22;4335;48.860;9.198;2023-05-10T05:49:50;15.90;99.90
8595;DHT22;4335;48.860;9.198;2023-05-10T05:52:18;16.00;99.90
8595;DHT22;4335;48.860;9.198;2023-05-10T05:54:47;16.10;99.90
8595;DHT22;4335;48.860;9.198;2023-05-10T05:57:20;16.20;99.90
8595;DHT22;4335;48.860;9.198;2023-05-10T05:59:47;16.20;99.90
8595;DHT22;4335;48.860;9.198;2023-05-10T06:02:15;16.30;99.90
8595;DHT22;4335;48.860;9.198;2023-05-10T06:04:43;16.20;99.90
8595;DHT22;4335;48.860;9.198;2023-05-10T06:07:17;16.30;99.90
8595;DHT22;4335;48.860;9.198;2023-05-10T06:09:47;16.30;99.90
8595;DHT22;4335;48.860;9.198;2023-05-10T06:12:14;16.30;99.90
8595;DHT22;4335;48.860;9.198;2023-05-10T06:14:45;16.30;99.90
8595;DHT22;4335;48.860;9.198;2023-05-10T06:17:15;16.20;99.90
8595;DHT22;4335;48.860;9.198;2023-05-10T06:19:46;16.20;99.90
8595;DHT22;4335;48.860;9.198;2023-05-10T06:22:13;16.20;99.90
8595;DHT22;4335;48.860;9.198;2023-05-10T06:24:44;16.20;99.90
8595;DHT22;4335;48.860;9.198;2023-05-10T06:27:14;16.20;99.90
8595;DHT22;4335;48.860;9.198;2023-05-10T06:29:41;16.20;99.90
8595;DHT22;4335;48.860;9.198;2023-05-10T06:32:12;16.20;99.90
8595;DHT22;4335;48.860;9.198;2023-05-10T06:34:39;16.30;99.90
8595;DHT22;4335;48.860;9.198;2023-05-10T06:37:08;16.40;99.90
8595;DHT22;4335;48.860;9.198;2023-05-10T06:39:41;16.40;99.90
8595;DHT22;4335;48.860;9.198;2023-05-10T06:42:10;16.30;99.90
8595;DHT22;4335;48.860;9.198;2023-05-10T06:44:37;16.30;99.90
8595;DHT22;4335;48.860;9.198;2023-05-10T06:47:05;16.40;99.90
8595;DHT22;4335;48.860;9.198;2023-05-10T06:49:38;16.50;99.90
8595;DHT22;4335;48.860;9.198;2023-05-10T06:52:16;16.50;99.90
8595;DHT22;4335;48.860;9.198;2023-05-10T06:54:46;16.60;99.90
8595;DHT22;4335;48.860;9.198;2023-05-10T06:57:14;16.60;99.90
8595;DHT22;4335;48.860;9.198;2023-05-10T06:59:41;16.60;99.90
8595;DHT22;4335;48.860;9.198;2023-05-10T07:02:09;16.70;99.90
8595;DHT22;4335;48.860;9.198;2023-05-10T07:04:48;16.80;99.90
8595;DHT22;4335;48.860;9.198;2023-05-10T07:07:20;16.80;99.90
8595;DHT22;4335;48.860;9.198;2023-05-10T07:09:50;16.80;99.90
8595;DHT22;4335;48.860;9.198;2023-05-10T07:12:21;16.80;99.90
8595;DHT22;4335;48.860;9.198;2023-05-10T07:14:51;16.80;99.90
8595;DHT22;4335;48.860;9.198;2023-05-10T07:17:19;16.90;99.90
8595;DHT22;4335;48.860;9.198;2023-05-10T07:19:46;16.90;99.90
8595;DHT22;4335;48.860;9.198;2023-05-10T07:22:14;17.00;99.90
8595;DHT22;4335;48.860;9.198;2023-05-10T07:24:44;17.10;99.90
8595;DHT22;4335;48.860;9.198;2023-05-10T07:27:15;17.20;99.90
8595;DHT22;4335;48.860;9.198;2023-05-10T07:29:46;17.10;99.90
8595;DHT22;4335;48.860;9.198;2023-05-10T07:32:13;17.10;99.90
8595;DHT22;4335;48.860;9.198;2023-05-10T07:34:43;17.10;99.90
8595;DHT22;4335;48.860;9.198;2023-05-10T07:37:11;17.10;99.90
8595;DHT22;4335;48.860;9.198;2023-05-10T07:39:51;17.20;99.90
8595;DHT22;4335;48.860;9.198;2023-05-10T07:42:19;17.30;99.90
8595;DHT22;4335;48.860;9.198;2023-05-10T07:44:49;17.10;99.90
8595;DHT22;4335;48.860;9.198;2023-05-10T07:47:25;17.20;99.90
8595;DHT22;4335;48.860;9.198;2023-05-10T07:49:55;17.40;99.90
8595;DHT22;4335;48.860;9.198;2023-05-10T07:52:23;17.60;99.90
8595;DHT22;4335;48.860;9.198;2023-05-10T07:54:51;17.70;99.90
8595;DHT22;4335;48.860;9.198;2023-05-10T07:57:19;17.70;99.90
8595;DHT22;4335;48.860;9.198;2023-05-10T07:59:49;17.90;99.90
8595;DHT22;4335;48.860;9.198;2023-05-10T08:02:17;17.70;99.90
8595;DHT22;4335;48.860;9.198;2023-05-10T08:04:50;17.70;99.90
8595;DHT22;4335;48.860;9.198;2023-05-10T08:07:18;17.60;99.90
8595;DHT22;4335;48.860;9.198;2023-05-10T08:09:49;17.50;99.90
8595;DHT22;4335;48.860;9.198;2023-05-10T08:12:17;17.40;99.90
8595;DHT22;4335;48.860;9.198;2023-05-10T08:14:45;17.40;99.90
8595;DHT22;4335;48.860;9.198;2023-05-10T08:17:12;17.40;99.90
8595;DHT22;4335;48.860;9.198;2023-05-10T08:19:53;17.30;99.90
8595;DHT22;4335;48.860;9.198;2023-05-10T08:22:27;17.30;99.90
8595;DHT22;4335;48.860;9.198;2023-05-10T08:24:54;17.20;99.90
8595;DHT22;4335;48.860;9.198;2023-05-10T08:27:28;17.10;99.90
8595;DHT22;4335;48.860;9.198;2023-05-10T08:29:55;17.00;99.90
8595;DHT22;4335;48.860;9.198;2023-05-10T08:32:23;17.00;99.90
8595;DHT22;4335;48.860;9.198;2023-05-10T08:34:50;17.00;99.90
8595;DHT22;4335;48.860;9.198;2023-05-10T08:37:24;17.00;99.90
8595;DHT22;4335;48.860;9.198;2023-05-10T08:39:52;17.10;99.90
8595;DHT22;4335;48.860;9.198;2023-05-10T08:42:28;17.10;99.90
8595;DHT22;4335;48.860;9.198;2023-05-10T08:44:57;17.10;99.90
8595;DHT22;4335;48.860;9.198;2023-05-10T08:47:26;17.20;99.90
8595;DHT22;4335;48.860;9.198;2023-05-10T08:49:54;17.30;99.90
8595;DHT22;4335;48.860;9.198;2023-05-10T08:52:26;17.30;99.90
8595;DHT22;4335;48.860;9.198;2023-05-10T08:55:01;17.30;99.90
8595;DHT22;4335;48.860;9.198;2023-05-10T08:57:30;17.50;99.90
8595;DHT22;4335;48.860;9.198;2023-05-10T08:59:59;17.60;99.90
8595;DHT22;4335;48.860;9.198;2023-05-10T09:02:28;17.70;99.90
8595;DHT22;4335;48.860;9.198;2023-05-10T09:04:59;17.90;99.90
8595;DHT22;4335;48.860;9.198;2023-05-10T09:07:27;18.00;99.90
8595;DHT22;4335;48.860;9.198;2023-05-10T09:09:54;18.20;99.90
8595;DHT22;4335;48.860;9.198;2023-05-10T09:12:36;18.30;99.90
8595;DHT22;4335;48.860;9.198;2023-05-10T09:15:07;18.40;99.90
8595;DHT22;4335;48.860;9.198;2023-05-10T09:17:37;18.60;99.90
8595;DHT22;4335;48.860;9.198;2023-05-10T09:20:06;18.80;99.90
8595;DHT22;4335;48.860;9.198;2023-05-10T09:22:37;19.10;99.90
8595;DHT22;4335;48.860;9.198;2023-05-10T09:25:08;18.80;99.90
8595;DHT22;4335;48.860;9.198;2023-05-10T09:27:41;18.70;99.90
8595;DHT22;4335;48.860;9.198;2023-05-10T09:30:32;18.60;99.90
8595;DHT22;4335;48.860;9.198;2023-05-10T09:33:05;18.60;99.90
8595;DHT22;4335;48.860;9.198;2023-05-10T09:35:33;18.70;99.90
8595;DHT22;4335;48.860;9.198;2023-05-10T09:38:05;18.90;99.90
8595;DHT22;4335;48.860;9.198;2023-05-10T09:40:35;18.80;99.90
8595;DHT22;4335;48.860;9.198;2023-05-10T09:43:06;19.10;99.90
8595;DHT22;4335;48.860;9.198;2023-05-10T09:45:37;19.70;99.90
8595;DHT22;4335;48.860;9.198;2023-05-10T09:48:07;20.20;99.90
8595;DHT22;4335;48.860;9.198;2023-05-10T09:50:34;20.40;99.90
8595;DHT22;4335;48.860;9.198;2023-05-10T09:53:03;20.30;99.90
8595;DHT22;4335;48.860;9.198;2023-05-10T09:55:39;20.10;99.90
8595;DHT22;4335;48.860;9.198;2023-05-10T09:58:10;19.90;99.90
8595;DHT22;4335;48.860;9.198;2023-05-10T10:00:42;19.80;99.90
8595;DHT22;4335;48.860;9.198;2023-05-10T10:03:17;19.40;99.90
8595;DHT22;4335;48.860;9.198;2023-05-10T10:05:48;19.20;99.90
8595;DHT22;4335;48.860;9.198;2023-05-10T10:08:16;19.10;99.90
8595;DHT22;4335;48.860;9.198;2023-05-10T10:10:44;19.10;99.90
8595;DHT22;4335;48.860;9.198;2023-05-10T10:13:16;18.70;99.90
8595;DHT22;4335;48.860;9.198;2023-05-10T10:15:43;18.70;99.90
8595;DHT22;4335;48.860;9.198;2023-05-10T10:18:13;18.60;99.90
8595;DHT22;4335;48.860;9.198;2023-05-10T10:20:41;18.50;99.90
8595;DHT22;4335;48.860;9.198;2023-05-10T10:23:08;18.50;99.90
8595;DHT22;4335;48.860;9.198;2023-05-10T10:25:37;18.70;99.90
8595;DHT22;4335;48.860;9.198;2023-05-10T10:28:20;18.70;99.90
8595;DHT22;4335;48.860;9.198;2023-05-10T10:30:51;18.60;99.90
8595;DHT22;4335;48.860;9.198;2023-05-10T10:33:51;18.60;99.90
8595;DHT22;4335;48.860;9.198;2023-05-10T10:36:21;18.60;99.90
8595;DHT22;4335;48.860;9.198;2023-05-10T10:38:58;18.60;99.90
8595;DHT22;4335;48.860;9.198;2023-05-10T10:41:35;18.50;99.90
8595;DHT22;4335;48.860;9.198;2023-05-10T10:44:28;18.50;99.90
8595;DHT22;4335;48.860;9.198;2023-05-10T10:47:22;18.60;99.90
8595;DHT22;4335;48.860;9.198;2023-05-10T10:50:05;18.60;99.90
8595;DHT22;4335;48.860;9.198;2023-05-10T10:52:37;18.90;99.90
8595;DHT22;4335;48.860;9.198;2023-05-10T10:55:06;19.00;99.90
8595;DHT22;4335;48.860;9.198;2023-05-10T10:57:43;19.40;99.90
8595;DHT22;4335;48.860;9.198;2023-05-10T11:00:36;19.40;99.90
8595;DHT22;4335;48.860;9.198;2023-05-10T11:03:12;19.30;99.90
8595;DHT22;4335;48.860;9.198;2023-05-10T11:05:46;19.30;99.90
8595;DHT22;4335;48.860;9.198;2023-05-10T11:08:19;19.30;99.90
8595;DHT22;4335;48.860;9.198;2023-05-10T11:10:52;19.10;99.90
8595;DHT22;4335;48.860;9.198;2023-05-10T11:13:30;19.20;99.90
8595;DHT22;4335;48.860;9.198;2023-05-10T11:16:21;19.30;99.90
8595;DHT22;4335;48.860;9.198;2023-05-10T11:18:53;19.50;99.90
8595;DHT22;4335;48.860;9.198;2023-05-10T11:21:24;19.50;99.90
8595;DHT22;4335;48.860;9.198;2023-05-10T11:23:53;19.60;99.90
8595;DHT22;4335;48.860;9.198;2023-05-10T11:26:22;19.90;99.90
8595;DHT22;4335;48.860;9.198;2023-05-10T11:28:53;19.90;99.90
8595;DHT22;4335;48.860;9.198;2023-05-10T11:31:23;20.00;99.90
8595;DHT22;4335;48.860;9.198;2023-05-10T11:33:54;19.70;99.90
8595;DHT22;4335;48.860;9.198;2023-05-10T11:36:23;19.50;99.90
8595;DHT22;4335;48.860;9.198;2023-05-10T11:38:52;19.60;99.90
8595;DHT22;4335;48.860;9.198;2023-05-10T11:41:22;19.60;99.90
8595;DHT22;4335;48.860;9.198;2023-05-10T11:43:51;19.50;99.90
8595;DHT22;4335;48.860;9.198;2023-05-10T11:46:20;19.40;99.90
8595;DHT22;4335;48.860;9.198;2023-05-10T11:48:50;19.30;99.90
8595;DHT22;4335;48.860;9.198;2023-05-10T11:51:21;19.10;99.90
8595;DHT22;4335;48.860;9.198;2023-05-10T11:53:54;19.10;99.90
8595;DHT22;4335;48.860;9.198;2023-05-10T11:56:28;19.20;99.90
8595;DHT22;4335;48.860;9.198;2023-05-10T11:58:56;19.00;99.90
8595;DHT22;4335;48.860;9.198;2023-05-10T12:01:24;18.80;99.90
8595;DHT22;4335;48.860;9.198;2023-05-10T12:03:54;19.00;99.90
8595;DHT22;4335;48.860;9.198;2023-05-10T12:06:27;19.20;99.90
8595;DHT22;4335;48.860;9.198;2023-05-10T12:09:06;19.30;99.90
8595;DHT22;4335;48.860;9.198;2023-05-10T12:11:38;19.30;99.90
8595;DHT22;4335;48.860;9.198;2023-05-10T12:14:06;19.20;99.90
8595;DHT22;4335;48.860;9.198;2023-05-10T12:16:36;19.20;99.90
8595;DHT22;4335;48.860;9.198;2023-05-10T12:19:08;19.00;99.90
8595;DHT22;4335;48.860;9.198;2023-05-10T12:21:37;18.70;99.90
8595;DHT22;4335;48.860;9.198;2023-05-10T12:24:07;18.60;99.90
8595;DHT22;4335;48.860;9.198;2023-05-10T12:26:36;18.50;99.90
8595;DHT22;4335;48.860;9.198;2023-05-10T12:29:14;18.60;99.90
8595;DHT22;4335;48.860;9.198;2023-05-10T12:31:52;18.60;99.90
8595;DHT22;4335;48.860;9.198;2023-05-10T12:34:26;18.50;99.90
8595;DHT22;4335;48.860;9.198;2023-05-10T12:36:53;18.40;99.90
8595;DHT22;4335;48.860;9.198;2023-05-10T12:39:21;18.30;99.90
8595;DHT22;4335;48.860;9.198;2023-05-10T12:41:48;18.50;99.90
8595;DHT22;4335;48.860;9.198;2023-05-10T12:44:15;18.50;99.90
8595;DHT22;4335;48.860;9.198;2023-05-10T12:46:43;18.60;99.90
8595;DHT22;4335;48.860;9.198;2023-05-10T12:49:13;18.70;99.90
8595;DHT22;4335;48.860;9.198;2023-05-10T12:51:42;18.90;99.90
8595;DHT22;4335;48.860;9.198;2023-05-10T12:54:12;18.90;99.90
8595;DHT22;4335;48.860;9.198;2023-05-10T12:56:40;19.00;99.90
8595;DHT22;4335;48.860;9.198;2023-05-10T12:59:11;18.90;99.90
8595;DHT22;4335;48.860;9.198;2023-05-10T13:01:38;18.80;99.90
8595;DHT22;4335;48.860;9.198;2023-05-10T13:04:09;18.90;99.90
8595;DHT22;4335;48.860;9.198;2023-05-10T13:06:36;18.90;99.90
8595;DHT22;4335;48.860;9.198;2023-05-10T13:09:05;18.90;99.90
8595;DHT22;4335;48.860;9.198;2023-05-10T13:11:32;19.10;99.90
8595;DHT22;4335;48.860;9.198;2023-05-10T13:14:00;19.20;99.90
8595;DHT22;4335;48.860;9.198;2023-05-10T13:16:28;19.20;99.90
8595;DHT22;4335;48.860;9.198;2023-05-10T13:18:56;19.20;99.90
8595;DHT22;4335;48.860;9.198;2023-05-10T13:21:27;19.20;99.90
8595;DHT22;4335;48.860;9.198;2023-05-10T13:23:54;19.30;99.90
8595;DHT22;4335;48.860;9.198;2023-05-10T13:26:23;19.30;99.90
8595;DHT22;4335;48.860;9.198;2023-05-10T13:28:51;19.10;99.90
8595;DHT22;4335;48.860;9.198;2023-05-10T13:31:18;18.90;99.90
8595;DHT22;4335;48.860;9.198;2023-05-10T13:33:55;18.80;99.90
8595;DHT22;4335;48.860;9.198;2023-05-10T13:36:32;18.60;99.90
8595;DHT22;4335;48.860;9.198;2023-05-10T13:38:59;18.50;99.90
8595;DHT22;4335;48.860;9.198;2023-05-10T13:41:30;18.30;99.90
8595;DHT22;4335;48.860;9.198;2023-05-10T13:44:11;18.50;99.90
8595;DHT22;4335;48.860;9.198;2023-05-10T13:46:39;18.40;99.90
8595;DHT22;4335;48.860;9.198;2023-05-10T13:49:09;18.40;99.90
8595;DHT22;4335;48.860;9.198;2023-05-10T13:51:36;18.30;99.90
8595;DHT22;4335;48.860;9.198;2023-05-10T13:54:04;18.30;99.90
8595;DHT22;4335;48.860;9.198;2023-05-10T13:56:35;18.30;99.90
8595;DHT22;4335;48.860;9.198;2023-05-10T13:59:03;18.50;99.90
8595;DHT22;4335;48.860;9.198;2023-05-10T14:01:33;18.50;99.90
8595;DHT22;4335;48.860;9.198;2023-05-10T14:04:01;18.50;99.90
8595;DHT22;4335;48.860;9.198;2023-05-10T14:06:31;18.60;99.90
8595;DHT22;4335;48.860;9.198;2023-05-10T14:09:08;18.70;99.90
8595;DHT22;4335;48.860;9.198;2023-05-10T14:11:37;18.80;99.90
8595;DHT22;4335;48.860;9.198;2023-05-10T14:14:08;18.70;99.90
8595;DHT22;4335;48.860;9.198;2023-05-10T14:16:42;18.90;99.90
8595;DHT22;4335;48.860;9.198;2023-05-10T14:19:12;18.90;99.90
8595;DHT22;4335;48.860;9.198;2023-05-10T14:21:40;18.80;99.90
8595;DHT22;4335;48.860;9.198;2023-05-10T14:24:07;18.70;99.90
8595;DHT22;4335;48.860;9.198;2023-05-10T14:26:42;18.70;99.90
8595;DHT22;4335;48.860;9.198;2023-05-10T14:29:09;18.60;99.90
8595;DHT22;4335;48.860;9.198;2023-05-10T14:31:36;18.40;99.90
8595;DHT22;4335;48.860;9.198;2023-05-10T14:34:04;18.50;99.90
8595;DHT22;4335;48.860;9.198;2023-05-10T14:36:31;18.40;99.90
8595;DHT22;4335;48.860;9.198;2023-05-10T14:38:59;18.50;99.90
8595;DHT22;4335;48.860;9.198;2023-05-10T14:41:26;18.50;99.90
8595;DHT22;4335;48.860;9.198;2023-05-10T14:43:58;18.60;99.90
8595;DHT22;4335;48.860;9.198;2023-05-10T14:46:26;18.60;99.90
8595;DHT22;4335;48.860;9.198;2023-05-10T14:48:56;18.50;99.90
8595;DHT22;4335;48.860;9.198;2023-05-10T14:51:23;18.70;99.90
8595;DHT22;4335;48.860;9.198;2023-05-10T14:53:51;18.70;99.90
8595;DHT22;4335;48.860;9.198;2023-05-10T14:56:18;18.70;99.90
8595;DHT22;4335;48.860;9.198;2023-05-10T14:58:50;18.70;99.90
8595;DHT22;4335;48.860;9.198;2023-05-10T15:01:22;18.70;99.90
8595;DHT22;4335;48.860;9.198;2023-05-10T15:03:49;18.70;99.90
8595;DHT22;4335;48.860;9.198;2023-05-10T15:06:30;18.70;99.90
8595;DHT22;4335;48.860;9.198;2023-05-10T15:08:58;18.80;99.90
8595;DHT22;4335;48.860;9.198;2023-05-10T15:11:26;18.80;99.90
8595;DHT22;4335;48.860;9.198;2023-05-10T15:13:56;19.00;99.90
8595;DHT22;4335;48.860;9.198;2023-05-10T15:16:34;19.00;99.90
8595;DHT22;4335;48.860;9.198;2023-05-10T15:19:01;19.00;99.90
8595;DHT22;4335;48.860;9.198;2023-05-10T15:21:32;19.10;99.90
8595;DHT22;4335;48.860;9.198;2023-05-10T15:24:04;19.10;99.90
8595;DHT22;4335;48.860;9.198;2023-05-10T15:26:38;19.00;99.90
8595;DHT22;4335;48.860;9.198;2023-05-10T15:29:06;19.10;99.90
8595;DHT22;4335;48.860;9.198;2023-05-10T15:31:41;19.10;99.90
8595;DHT22;4335;48.860;9.198;2023-05-10T15:34:11;19.00;99.90
8595;DHT22;4335;48.860;9.198;2023-05-10T15:36:38;18.90;99.90
8595;DHT22;4335;48.860;9.198;2023-05-10T15:39:06;18.60;99.90
8595;DHT22;4335;48.860;9.198;2023-05-10T15:41:35;18.60;99.90
8595;DHT22;4335;48.860;9.198;2023-05-10T15:44:02;18.60;99.90
8595;DHT22;4335;48.860;9.198;2023-05-10T15:46:30;18.60;99.90
8595;DHT22;4335;48.860;9.198;2023-05-10T15:48:59;18.60;99.90
8595;DHT22;4335;48.860;9.198;2023-05-10T15:51:27;18.60;99.90
8595;DHT22;4335;48.860;9.198;2023-05-10T15:53:54;18.60;99.90
8595;DHT22;4335;48.860;9.198;2023-05-10T15:56:22;18.40;99.90
8595;DHT22;4335;48.860;9.198;2023-05-10T15:58:49;18.40;99.90
8595;DHT22;4335;48.860;9.198;2023-05-10T16:01:19;18.40;99.90
8595;DHT22;4335;48.860;9.198;2023-05-10T16:03:47;18.40;99.90
8595;DHT22;4335;48.860;9.198;2023-05-10T16:06:18;18.40;99.90
8595;DHT22;4335;48.860;9.198;2023-05-10T16:08:46;18.40;99.90
8595;DHT22;4335;48.860;9.198;2023-05-10T16:11:15;18.40;99.90
8595;DHT22;4335;48.860;9.198;2023-05-10T16:13:51;18.40;99.90
8595;DHT22;4335;48.860;9.198;2023-05-10T16:16:22;18.20;99.90
8595;DHT22;4335;48.860;9.198;2023-05-10T16:18:50;18.20;99.90
8595;DHT22;4335;48.860;9.198;2023-05-10T16:21:22;18.20;99.90
8595;DHT22;4335;48.860;9.198;2023-05-10T16:23:50;18.10;99.90
8595;DHT22;4335;48.860;9.198;2023-05-10T16:26:26;18.10;99.90
8595;DHT22;4335;48.860;9.198;2023-05-10T16:28:53;18.10;99.90
8595;DHT22;4335;48.860;9.198;2023-05-10T16:31:21;18.00;99.90